Latest Weather Observations for Sellicks Hill

IDS60901

Issued at 1:01 am CDT Friday 21 January 2022 (issued every 10 minutes, with the page automatically refreshed every 10 minutes)

About weather observations | Map of Adelaide area stations | Latest observations for Adelaide area | Other Formats
Station Details ID: 023886 Name: MOUNT TERRIBLE RADAR Lat: -35.33 Lon: 138.50 Height: 385.7 m
Data from the previous 72 hours. | See also: Recent months at Sellicks Hill
Date/Time
CDT
Temp
°C
App
Temp
°C
Dew
Point
°C
Rel
Hum
%
Delta-T
°C
Wind Press
QNH
hPa
Press
MSL
hPa
Rain since
9am
mm
Dir  Spd
km/h
Gust
km/h
Spd
kts
Gust
kts
21/01:00am - - - - - E 26 39 14 21 - - -
21/12:30am - - - - - E 26 37 14 20 - - -
21/12:00am - - - - - E 26 35 14 19 - - -
 
Date/Time
CDT
Temp
°C
App
Temp
°C
Dew
Point
°C
Rel
Hum
%
Delta-T
°C
Wind Press
QNH
hPa
Press
MSL
hPa
Rain since
9am
mm
Dir  Spd
km/h
Gust
km/h
Spd
kts
Gust
kts
20/11:30pm - - - - - E 24 39 13 21 - - -
20/11:00pm - - - - - E 24 35 13 19 - - -
20/10:30pm - - - - - E 24 35 13 19 - - -
20/10:00pm - - - - - ESE 19 28 10 15 - - -
20/09:30pm - - - - - SE 20 26 11 14 - - -
20/09:00pm - - - - - SE 19 20 10 11 - - -
20/08:30pm - - - - - SSE 22 24 12 13 - - -
20/08:00pm - - - - - SSE 28 33 15 18 - - -
20/07:30pm - - - - - SE 26 44 14 24 - - -
20/07:00pm - - - - - ESE 24 43 13 23 - - -
20/06:30pm - - - - - ESE 28 46 15 25 - - -
20/06:00pm - - - - - E 19 32 10 17 - - -
20/05:30pm - - - - - E 24 39 13 21 - - -
20/05:00pm - - - - - ESE 26 41 14 22 - - -
20/04:30pm - - - - - ESE 28 43 15 23 - - -
20/04:00pm - - - - - ESE 26 50 14 27 - - -
20/03:30pm - - - - - E 24 50 13 27 - - -
20/03:02pm - - - - - E 28 48 15 26 - - -
20/03:00pm - - - - - E 26 48 14 26 - - -
20/02:30pm - - - - - E 32 52 17 28 - - -
20/02:03pm - - - - - E 28 46 15 25 - - -
20/02:00pm - - - - - ESE 26 44 14 24 - - -
20/01:30pm - - - - - E 28 44 15 24 - - -
20/01:00pm - - - - - E 30 50 16 27 - - -
20/12:30pm - - - - - E 30 56 16 30 - - -
20/12:00pm - - - - - E 32 59 17 32 - - -
20/11:33am - - - - - E 28 46 15 25 - - -
20/11:30am - - - - - E 26 46 14 25 - - -
20/11:00am - - - - - E 30 46 16 25 - - -
20/10:42am - - - - - E 24 52 13 28 - - -
20/10:30am - - - - - ENE 22 39 12 21 - - -
20/10:00am - - - - - ENE 19 35 10 19 - - -
20/09:30am - - - - - ENE 20 39 11 21 - - -
20/09:00am - - - - - E 17 26 9 14 - - -
20/08:30am - - - - - ENE 17 35 9 19 - - -
20/08:00am - - - - - ENE 20 33 11 18 - - -
20/07:30am - - - - - E 20 28 11 15 - - -
20/07:00am - - - - - ENE 22 32 12 17 - - -
20/06:30am - - - - - ENE 26 35 14 19 - - -
20/06:00am - - - - - ENE 28 37 15 20 - - -
20/05:30am - - - - - E 24 32 13 17 - - -
20/05:00am - - - - - E 26 32 14 17 - - -
20/04:30am - - - - - E 26 33 14 18 - - -
20/04:00am - - - - - ESE 26 37 14 20 - - -
20/03:30am - - - - - ESE 20 28 11 15 - - -
20/03:00am - - - - - ESE 22 30 12 16 - - -
20/02:30am - - - - - ESE 20 26 11 14 - - -
20/02:00am - - - - - SE 22 28 12 15 - - -
20/01:30am - - - - - SSE 24 28 13 15 - - -
20/01:00am - - - - - SSE 26 28 14 15 - - -
20/12:30am - - - - - SSE 26 32 14 17 - - -
20/12:00am - - - - - SSE 28 30 15 16 - - -
 
Date/Time
CDT
Temp
°C
App
Temp
°C
Dew
Point
°C
Rel
Hum
%
Delta-T
°C
Wind Press
QNH
hPa
Press
MSL
hPa
Rain since
9am
mm
Dir  Spd
km/h
Gust
km/h
Spd
kts
Gust
kts
19/11:30pm - - - - - SSE 28 30 15 16 - - -
19/11:00pm - - - - - SSE 28 32 15 17 - - -
19/10:30pm - - - - - SSE 26 30 14 16 - - -
19/10:00pm - - - - - SSE 24 28 13 15 - - -
19/09:30pm - - - - - SSE 22 26 12 14 - - -
19/09:00pm - - - - - SSE 24 28 13 15 - - -
19/08:30pm - - - - - SSE 24 26 13 14 - - -
19/08:00pm - - - - - SSE 24 30 13 16 - - -
19/07:30pm - - - - - SSE 30 33 16 18 - - -
19/07:00pm - - - - - SSE 32 35 17 19 - - -
19/06:30pm - - - - - SSE 26 32 14 17 - - -
19/06:00pm - - - - - SSE 32 39 17 21 - - -
19/05:30pm - - - - - SE 28 39 15 21 - - -
19/05:00pm - - - - - SE 24 37 13 20 - - -
19/04:30pm - - - - - SE 24 35 13 19 - - -
19/04:00pm - - - - - SE 24 39 13 21 - - -
19/03:30pm - - - - - SE 24 37 13 20 - - -
19/03:00pm - - - - - SE 26 39 14 21 - - -
19/02:30pm - - - - - SE 26 35 14 19 - - -
19/02:00pm - - - - - SE 28 37 15 20 - - -
19/01:38pm - - - - - SSE 32 50 17 27 - - -
19/01:30pm - - - - - SSE 35 46 19 25 - - -
19/01:00pm - - - - - SSE 43 54 23 29 - - -
19/12:30pm - - - - - SSE 43 56 23 30 - - -
19/12:00pm - - - - - SE 44 56 24 30 - - -
19/11:30am - - - - - SE 48 61 26 33 - - -
19/11:00am - - - - - SE 46 61 25 33 - - -
19/10:30am - - - - - SE 48 61 26 33 - - -
19/10:00am - - - - - SE 44 57 24 31 - - -
19/09:30am - - - - - SE 48 61 26 33 - - -
19/09:00am - - - - - SE 46 59 25 32 - - -
19/08:30am - - - - - SE 52 65 28 35 - - -
19/08:00am - - - - - SE 50 63 27 34 - - -
19/07:30am - - - - - SE 48 63 26 34 - - -
19/07:00am - - - - - SE 44 56 24 30 - - -
19/06:30am - - - - - SE 44 54 24 29 - - -
19/06:00am - - - - - SE 46 57 25 31 - - -
19/05:30am - - - - - SE 46 56 25 30 - - -
19/05:00am - - - - - SE 46 56 25 30 - - -
19/04:30am - - - - - SE 48 61 26 33 - - -
19/04:00am - - - - - SE 48 59 26 32 - - -
19/03:30am - - - - - SE 50 61 27 33 - - -
19/03:00am - - - - - SE 52 61 28 33 - - -
19/02:48am - - - - - SE 48 67 26 36 - - -
19/02:30am - - - - - SE 50 63 27 34 - - -
19/02:00am - - - - - SE 48 63 26 34 - - -
19/01:30am - - - - - SE 50 63 27 34 - - -
19/01:00am - - - - - SSE 50 69 27 37 - - -
19/12:56am - - - - - SSE 50 69 27 37 - - -
19/12:30am - - - - - SSE 52 61 28 33 - - -
19/12:00am - - - - - SSE 56 67 30 36 - - -
 
Date/Time
CDT
Temp
°C
App
Temp
°C
Dew
Point
°C
Rel
Hum
%
Delta-T
°C
Wind Press
QNH
hPa
Press
MSL
hPa
Rain since
9am
mm
Dir  Spd
km/h
Gust
km/h
Spd
kts
Gust
kts
18/11:30pm - - - - - SSE 56 65 30 35 - - -
18/11:00pm - - - - - SSE 52 65 28 35 - - -
18/10:30pm - - - - - SSE 52 65 28 35 - - -
18/10:00pm - - - - - SSE 54 67 29 36 - - -
18/09:30pm - - - - - SSE 56 65 30 35 - - -
18/09:00pm - - - - - SSE 56 65 30 35 - - -
18/08:30pm - - - - - SSE 59 76 32 41 - - -
18/08:00pm - - - - - SSE 56 69 30 37 - - -
18/07:30pm - - - - - SSE 54 70 29 38 - - -
18/07:00pm - - - - - SSE 52 65 28 35 - - -
18/06:30pm - - - - - SSE 43 56 23 30 - - -
18/06:00pm - - - - - SSE 50 63 27 34 - - -
18/05:30pm - - - - - SSE 50 63 27 34 - - -
18/05:00pm - - - - - SSE 50 61 27 33 - - -
18/04:30pm - - - - - SSE 54 65 29 35 - - -
18/04:00pm - - - - - SSE 44 57 24 31 - - -
18/03:30pm - - - - - SSE 44 56 24 30 - - -
18/03:00pm - - - - - SSE 48 61 26 33 - - -
18/02:30pm - - - - - SSE 46 56 25 30 - - -
18/02:00pm - - - - - SSE 44 57 24 31 - - -
18/01:30pm - - - - - SSE 44 57 24 31 - - -
18/01:00pm - - - - - SSE 43 56 23 30 - - -
18/12:30pm - - - - - SSE 41 52 22 28 - - -
18/12:00pm - - - - - SE 35 46 19 25 - - -
18/11:30am - - - - - SE 37 46 20 25 - - -
18/11:06am - - - - - SE 33 54 18 29 - - -
18/11:00am - - - - - SE 33 46 18 25 - - -
18/10:30am - - - - - SE 35 48 19 26 - - -
18/10:00am - - - - - SE 32 44 17 24 - - -
18/09:30am - - - - - SE 35 46 19 25 - - -
18/09:00am - - - - - SE 35 44 19 24 - - -
18/08:30am - - - - - SE 37 48 20 26 - - -
18/08:00am - - - - - SE 33 44 18 24 - - -
18/07:30am - - - - - SSE 43 52 23 28 - - -
18/07:00am - - - - - SSE 41 48 22 26 - - -
18/06:30am - - - - - SSE 39 48 21 26 - - -
18/06:00am - - - - - SSE 41 48 22 26 - - -
18/05:30am - - - - - SSE 43 52 23 28 - - -
18/05:00am - - - - - SSE 43 50 23 27 - - -
18/04:30am - - - - - SSE 39 46 21 25 - - -
18/04:00am - - - - - SSE 39 46 21 25 - - -
18/03:30am - - - - - SSE 41 48 22 26 - - -
18/03:00am - - - - - SSE 41 50 22 27 - - -
18/02:30am - - - - - SSE 37 46 20 25 - - -
18/02:00am - - - - - SSE 41 46 22 25 - - -
18/01:30am - - - - - SSE 43 50 23 27 - - -

Latest Capital City Observations: Canberra | Sydney | Melbourne | Brisbane | Adelaide | Perth | Hobart | Darwin

Other formats

Comma delimited format used in spreadsheet applications
http://www.bom.gov.au/fwo/IDS60901/IDS60901.95679.axf

JavaScript Object Notation format (JSON) in row-major order
http://www.bom.gov.au/fwo/IDS60901/IDS60901.95679.json

Data quality

Most of these data are generated automatically and are frequently updated. Quality checks on data are not normally performed. It is possible for incorrect values to appear. Refer to information at About Latest Weather Observations and please check the disclaimer before using these data.